createdAt,value
2022-10-18T00:00:00.318Z,92.81
2022-10-18T00:00:31.930Z,92.67
2022-10-18T00:01:04.874Z,92.60
2022-10-18T00:01:36.449Z,92.67
2022-10-18T00:02:08.037Z,93.00
2022-10-18T00:02:39.681Z,92.75
2022-10-18T00:03:11.185Z,92.62
2022-10-18T00:04:19.366Z,92.61
2022-10-18T00:04:50.943Z,92.54
2022-10-18T00:05:22.463Z,92.64
2022-10-18T00:05:54.092Z,92.82
2022-10-18T00:06:25.607Z,92.88
2022-10-18T00:06:57.648Z,92.87
2022-10-18T00:07:29.566Z,92.90
2022-10-18T00:08:01.282Z,92.67
2022-10-18T00:08:32.814Z,92.68
2022-10-18T00:09:04.806Z,92.49
2022-10-18T00:09:36.331Z,92.58
2022-10-18T00:10:08.652Z,92.65
2022-10-18T00:10:40.187Z,92.57
2022-10-18T00:11:11.702Z,92.68
2022-10-18T00:11:43.352Z,92.67
2022-10-18T00:12:14.886Z,92.33
2022-10-18T00:13:23.494Z,92.40
2022-10-18T00:13:56.406Z,92.66
2022-10-18T00:14:27.933Z,92.47
2022-10-18T00:14:59.464Z,92.35
2022-10-18T00:15:31.027Z,92.66
2022-10-18T00:16:04.210Z,92.80
2022-10-18T00:16:35.733Z,92.96
2022-10-18T00:17:07.300Z,92.87
2022-10-18T00:17:39.810Z,92.82
2022-10-18T00:18:11.303Z,92.95
2022-10-18T00:18:43.218Z,92.52
2022-10-18T00:19:14.863Z,92.63
2022-10-18T00:19:46.630Z,92.86
2022-10-18T00:20:18.258Z,92.94
2022-10-18T00:21:17.180Z,92.74
2022-10-18T00:21:51.038Z,92.84
2022-10-18T00:22:22.716Z,92.60
2022-10-18T00:22:54.327Z,92.28
2022-10-18T00:23:26.860Z,92.88
2022-10-18T00:23:58.410Z,92.89
2022-10-18T00:24:29.963Z,92.70
2022-10-18T00:25:01.560Z,92.86
2022-10-18T00:25:33.058Z,92.78
2022-10-18T00:26:14.078Z,92.84
2022-10-18T00:26:45.612Z,93.11
2022-10-18T00:27:17.949Z,93.48
2022-10-18T00:27:49.516Z,93.11
2022-10-18T00:28:21.023Z,93.24
2022-10-18T00:28:59.548Z,93.56
2022-10-18T00:29:31.125Z,93.27
2022-10-18T00:30:03.784Z,92.96
2022-10-18T00:30:35.308Z,92.78
2022-10-18T00:31:24.630Z,93.46
2022-10-18T00:31:56.144Z,93.63
2022-10-18T00:32:28.007Z,93.40
2022-10-18T00:32:59.659Z,93.55
2022-10-18T00:33:31.170Z,93.44
2022-10-18T00:34:07.688Z,93.21
2022-10-18T00:34:40.088Z,93.70
2022-10-18T00:35:11.669Z,93.72
2022-10-18T00:35:43.187Z,93.58
2022-10-18T00:36:14.956Z,93.40
2022-10-18T00:36:46.662Z,93.06
2022-10-18T00:37:18.606Z,92.87
2022-10-18T00:37:50.107Z,92.90
2022-10-18T00:38:21.626Z,93.45
2022-10-18T00:38:53.557Z,93.56
2022-10-18T00:39:25.183Z,93.51
2022-10-18T00:39:56.703Z,93.15
2022-10-18T00:40:28.211Z,92.82
2022-10-18T00:40:59.740Z,92.89
2022-10-18T00:41:33.232Z,92.72
2022-10-18T00:42:04.995Z,93.08
2022-10-18T00:42:37.912Z,93.51
2022-10-18T00:43:15.906Z,93.66
2022-10-18T00:44:27.230Z,93.95
2022-10-18T00:45:01.256Z,93.99
2022-10-18T00:45:32.805Z,93.94
2022-10-18T00:46:04.451Z,93.04
2022-10-18T00:46:38.953Z,93.02
2022-10-18T00:47:12.984Z,93.24
2022-10-18T00:47:48.514Z,93.50
2022-10-18T00:48:21.001Z,92.89
2022-10-18T00:49:45.523Z,92.83
2022-10-18T00:50:19.318Z,92.81
2022-10-18T00:50:52.885Z,93.10
2022-10-18T00:51:32.699Z,93.65
2022-10-18T00:52:16.512Z,93.50
2022-10-18T00:52:53.567Z,93.43
2022-10-18T00:53:25.089Z,93.88
2022-10-18T00:53:57.045Z,94.21
2022-10-18T00:54:31.057Z,94.04
2022-10-18T00:55:04.078Z,94.43
2022-10-18T00:55:35.850Z,94.48
2022-10-18T00:56:07.853Z,94.45
2022-10-18T00:56:39.955Z,94.54
2022-10-18T00:57:12.699Z,94.54
2022-10-18T00:57:45.016Z,94.46
2022-10-18T00:58:19.242Z,94.81
2022-10-18T00:58:51.703Z,94.80
2022-10-18T00:59:24.056Z,94.66
2022-10-18T00:59:55.853Z,94.16
2022-10-18T01:00:27.661Z,93.89
2022-10-18T01:00:59.175Z,93.78
2022-10-18T01:01:30.773Z,93.68
2022-10-18T01:02:02.881Z,93.66
2022-10-18T01:02:34.496Z,93.82
2022-10-18T01:03:07.407Z,93.87
2022-10-18T01:03:39.722Z,93.68
2022-10-18T01:04:13.679Z,93.68
2022-10-18T01:04:46.753Z,93.15
2022-10-18T01:05:19.566Z,92.90
2022-10-18T01:05:51.137Z,92.76
2022-10-18T01:06:22.830Z,92.72
2022-10-18T01:07:57.287Z,92.89
2022-10-18T01:08:32.816Z,92.76
2022-10-18T01:09:21.268Z,92.53
2022-10-18T01:10:14.854Z,92.48
2022-10-18T01:11:20.183Z,92.18
2022-10-18T01:11:57.589Z,91.94
2022-10-18T01:12:41.325Z,92.44
2022-10-18T01:13:25.606Z,92.71
2022-10-18T01:14:28.565Z,92.66
2022-10-18T01:15:09.177Z,92.45
2022-10-18T01:16:10.784Z,92.73
2022-10-18T01:16:50.445Z,92.85
2022-10-18T01:17:39.101Z,92.91
2022-10-18T01:18:29.601Z,92.92
2022-10-18T01:19:38.885Z,93.07
2022-10-18T01:20:25.753Z,92.98
2022-10-18T01:21:15.713Z,93.03
2022-10-18T01:21:47.179Z,93.82
2022-10-18T01:22:27.746Z,93.53
2022-10-18T01:23:11.044Z,93.21
2022-10-18T01:24:17.823Z,93.44
2022-10-18T01:25:04.038Z,93.50
2022-10-18T01:26:12.296Z,93.63
2022-10-18T01:26:52.636Z,93.51
2022-10-18T01:27:34.895Z,92.97
2022-10-18T01:28:30.502Z,93.15
2022-10-18T01:29:32.637Z,93.29
2022-10-18T01:30:41.697Z,93.67
2022-10-18T01:31:48.145Z,93.78
2022-10-18T01:32:24.888Z,93.65
2022-10-18T01:33:04.357Z,93.61
2022-10-18T01:33:49.272Z,93.76
2022-10-18T01:34:21.378Z,93.82
2022-10-18T01:34:59.806Z,93.81
2022-10-18T01:35:37.841Z,93.56
2022-10-18T01:36:21.321Z,93.61
2022-10-18T01:36:55.923Z,93.58
2022-10-18T01:37:29.966Z,93.93
2022-10-18T01:38:06.079Z,94.08
2022-10-18T01:38:39.659Z,94.11
2022-10-18T01:39:18.515Z,94.42
2022-10-18T01:39:53.851Z,94.23
2022-10-18T01:40:25.791Z,94.01
2022-10-18T01:40:59.247Z,94.01
2022-10-18T01:41:30.925Z,94.03
2022-10-18T01:42:06.523Z,93.99
2022-10-18T01:42:38.054Z,94.04
2022-10-18T01:43:11.463Z,94.11
2022-10-18T01:43:45.431Z,94.08
2022-10-18T01:44:23.426Z,94.14
2022-10-18T01:44:55.593Z,93.90
2022-10-18T01:45:28.432Z,93.84
2022-10-18T01:46:00.717Z,93.82
2022-10-18T01:46:33.361Z,93.89
2022-10-18T01:47:06.957Z,93.81
2022-10-18T01:47:39.153Z,94.02
2022-10-18T01:48:12.626Z,94.12
2022-10-18T01:48:44.503Z,93.75
2022-10-18T01:49:16.010Z,93.72
2022-10-18T01:49:47.537Z,93.71
2022-10-18T01:50:30.493Z,93.84
2022-10-18T01:51:02.011Z,93.74
2022-10-18T01:51:33.779Z,93.65
2022-10-18T01:52:05.699Z,93.53
2022-10-18T01:52:50.851Z,93.40
2022-10-18T01:53:35.611Z,92.93
2022-10-18T01:54:07.424Z,93.44
2022-10-18T01:54:41.685Z,93.71
2022-10-18T01:55:13.345Z,94.28
2022-10-18T01:55:53.016Z,93.65
2022-10-18T01:56:57.836Z,93.57
2022-10-18T01:57:29.300Z,93.50
2022-10-18T01:58:11.819Z,93.49
2022-10-18T01:58:48.786Z,93.19
2022-10-18T01:59:29.480Z,92.89
2022-10-18T02:00:14.115Z,93.22
2022-10-18T02:01:42.498Z,93.44
2022-10-18T02:02:25.924Z,93.41
2022-10-18T02:03:05.051Z,92.98
2022-10-18T02:03:42.630Z,92.56
2022-10-18T02:04:22.342Z,92.55
2022-10-18T02:05:29.346Z,92.51
2022-10-18T02:06:09.626Z,92.70
2022-10-18T02:06:45.254Z,92.89
2022-10-18T02:07:41.856Z,92.74
2022-10-18T02:08:34.820Z,92.55
2022-10-18T02:09:19.451Z,92.90
2022-10-18T02:10:57.931Z,93.19
2022-10-18T02:11:31.302Z,93.06
2022-10-18T02:12:03.614Z,93.03
2022-10-18T02:12:36.534Z,93.07
2022-10-18T02:13:14.682Z,93.03
2022-10-18T02:13:50.911Z,93.21
2022-10-18T02:14:25.730Z,93.40
2022-10-18T02:14:58.510Z,93.32
2022-10-18T02:15:35.874Z,93.30
2022-10-18T02:16:15.583Z,93.48
2022-10-18T02:16:58.598Z,93.91
2022-10-18T02:17:30.783Z,93.50
2022-10-18T02:18:08.460Z,93.47
2022-10-18T02:18:43.934Z,93.60
2022-10-18T02:19:22.604Z,94.11
2022-10-18T02:19:56.234Z,93.78
2022-10-18T02:20:29.050Z,93.50
2022-10-18T02:21:03.518Z,93.32
2022-10-18T02:21:36.786Z,93.27
2022-10-18T02:22:10.141Z,93.26
2022-10-18T02:22:42.882Z,93.34
2022-10-18T02:23:18.556Z,93.60
2022-10-18T02:23:50.523Z,93.33
2022-10-18T02:24:24.818Z,93.58
2022-10-18T02:24:59.887Z,93.62
2022-10-18T02:25:33.074Z,93.67
2022-10-18T02:26:04.782Z,93.55
2022-10-18T02:26:36.303Z,93.41
2022-10-18T02:27:08.294Z,93.20
2022-10-18T02:27:40.106Z,93.05
2022-10-18T02:28:12.869Z,93.02
2022-10-18T02:28:45.427Z,92.89
2022-10-18T02:29:17.344Z,93.24
2022-10-18T02:29:49.620Z,93.14
2022-10-18T02:30:31.059Z,92.82
2022-10-18T02:31:30.514Z,92.66
2022-10-18T02:32:25.422Z,92.58
2022-10-18T02:33:04.086Z,92.80
2022-10-18T02:33:46.976Z,92.94
2022-10-18T02:34:28.921Z,92.39
2022-10-18T02:35:10.792Z,92.28
2022-10-18T02:35:48.947Z,92.67
2022-10-18T02:36:36.057Z,92.95
2022-10-18T02:37:10.552Z,93.04
2022-10-18T02:37:43.289Z,93.09
2022-10-18T02:38:17.695Z,93.02
2022-10-18T02:38:55.089Z,92.91
2022-10-18T02:39:31.556Z,92.77
2022-10-18T02:40:05.094Z,93.02
2022-10-18T02:40:36.832Z,93.31
2022-10-18T02:41:08.462Z,93.20
2022-10-18T02:41:40.247Z,93.26
2022-10-18T02:42:13.675Z,93.12
2022-10-18T02:42:50.970Z,92.99
2022-10-18T02:43:24.875Z,92.89
2022-10-18T02:43:56.403Z,92.72
2022-10-18T02:44:27.922Z,92.86
2022-10-18T02:44:59.494Z,92.77
2022-10-18T02:45:31.366Z,93.17
2022-10-18T02:46:03.532Z,93.04
2022-10-18T02:46:35.395Z,92.86
2022-10-18T02:47:09.706Z,93.18
2022-10-18T02:47:41.652Z,93.25
2022-10-18T02:48:13.159Z,93.12
2022-10-18T02:48:44.676Z,93.22
2022-10-18T02:49:16.280Z,93.49
2022-10-18T02:49:47.785Z,93.82
2022-10-18T02:50:19.410Z,93.68
2022-10-18T02:50:50.922Z,93.34
2022-10-18T02:51:22.435Z,93.09
2022-10-18T02:51:53.949Z,92.87
2022-10-18T02:52:25.511Z,93.13
2022-10-18T02:52:57.038Z,93.33
2022-10-18T02:53:28.535Z,93.92
2022-10-18T02:54:00.031Z,93.96
2022-10-18T02:54:31.574Z,93.82
2022-10-18T02:55:03.586Z,93.77
2022-10-18T02:55:35.103Z,93.32
2022-10-18T02:56:06.982Z,93.16
2022-10-18T02:56:38.524Z,93.27
2022-10-18T02:57:10.040Z,93.44
2022-10-18T02:57:41.583Z,93.31
2022-10-18T02:58:14.730Z,93.05
2022-10-18T02:58:46.232Z,93.12
2022-10-18T02:59:17.882Z,93.30
2022-10-18T02:59:49.445Z,93.68
2022-10-18T03:00:20.960Z,93.89
2022-10-18T03:00:52.623Z,94.12
2022-10-18T03:01:24.301Z,93.85
2022-10-18T03:01:55.888Z,93.31
2022-10-18T03:02:27.498Z,93.03
2022-10-18T03:02:59.027Z,93.15
2022-10-18T03:03:30.554Z,93.02
2022-10-18T03:04:02.876Z,93.20
2022-10-18T03:04:34.397Z,93.63
2022-10-18T03:05:06.098Z,93.64
2022-10-18T03:05:37.590Z,93.75
2022-10-18T03:06:09.125Z,93.67
2022-10-18T03:06:40.694Z,93.61
2022-10-18T03:07:12.321Z,93.53
2022-10-18T03:07:43.809Z,93.42
2022-10-18T03:08:15.673Z,93.39
2022-10-18T03:08:47.180Z,93.37
2022-10-18T03:09:18.682Z,93.39
2022-10-18T03:09:50.195Z,93.93
2022-10-18T03:10:21.758Z,94.12
2022-10-18T03:10:53.270Z,94.12
2022-10-18T03:11:24.850Z,94.28
2022-10-18T03:11:56.399Z,94.18
2022-10-18T03:12:27.913Z,94.02
2022-10-18T03:12:59.529Z,93.83
2022-10-18T03:13:31.056Z,93.65
2022-10-18T03:14:02.713Z,93.28
2022-10-18T03:14:34.280Z,93.37
2022-10-18T03:15:06.188Z,93.26
2022-10-18T03:15:37.717Z,93.57
2022-10-18T03:16:09.417Z,93.95
2022-10-18T03:16:40.938Z,93.84
2022-10-18T03:17:12.481Z,93.87
2022-10-18T03:17:44.004Z,93.80
2022-10-18T03:18:15.830Z,94.26
2022-10-18T03:18:47.368Z,95.24
2022-10-18T03:19:18.882Z,95.63
2022-10-18T03:19:50.447Z,95.96
2022-10-18T03:20:21.978Z,95.85
2022-10-18T03:20:53.622Z,95.10
2022-10-18T03:21:25.166Z,94.50
2022-10-18T03:21:56.692Z,94.09
2022-10-18T03:23:00.859Z,94.19
2022-10-18T03:23:32.450Z,93.73
2022-10-18T03:24:04.292Z,94.11
2022-10-18T03:24:35.838Z,94.28
2022-10-18T03:25:07.674Z,95.55
2022-10-18T03:25:41.577Z,96.18
2022-10-18T03:26:15.758Z,96.19
2022-10-18T03:26:47.297Z,95.42
2022-10-18T03:27:18.858Z,95.20
2022-10-18T03:27:50.360Z,94.15
2022-10-18T03:28:21.874Z,94.07
2022-10-18T03:28:53.557Z,94.01
2022-10-18T03:29:25.099Z,94.81
2022-10-18T03:29:56.648Z,94.86
2022-10-18T03:30:28.205Z,95.95
2022-10-18T03:31:04.182Z,96.27
2022-10-18T03:31:35.963Z,96.13
2022-10-18T03:32:07.947Z,95.41
2022-10-18T03:32:40.570Z,95.81
2022-10-18T03:33:12.093Z,95.25
2022-10-18T03:33:43.734Z,94.83
2022-10-18T03:34:16.925Z,94.39
2022-10-18T03:34:48.440Z,94.29
2022-10-18T03:35:20.512Z,94.96
2022-10-18T03:35:52.007Z,93.95
2022-10-18T03:36:23.782Z,93.72
2022-10-18T03:36:55.349Z,93.65
2022-10-18T03:37:26.946Z,93.75
2022-10-18T03:37:58.462Z,94.13
2022-10-18T03:38:30.083Z,93.80
2022-10-18T03:39:01.578Z,93.90
2022-10-18T03:39:33.109Z,94.09
2022-10-18T03:40:05.297Z,93.57
2022-10-18T03:40:36.907Z,93.43
2022-10-18T03:41:08.749Z,93.70
2022-10-18T03:41:40.352Z,94.08
2022-10-18T03:42:11.852Z,94.21
2022-10-18T03:42:43.657Z,95.51
2022-10-18T03:43:15.186Z,95.40
2022-10-18T03:43:47.212Z,94.13
2022-10-18T03:44:18.726Z,93.50
2022-10-18T03:44:50.288Z,93.49
2022-10-18T03:45:21.791Z,93.61
2022-10-18T03:45:53.298Z,93.90
2022-10-18T03:46:24.806Z,94.04
2022-10-18T03:46:56.311Z,93.15
2022-10-18T03:47:27.820Z,92.99
2022-10-18T03:47:59.404Z,92.92
2022-10-18T03:48:30.909Z,94.87
2022-10-18T03:49:02.857Z,94.16
2022-10-18T03:50:10.875Z,93.12
2022-10-18T03:50:43.430Z,93.08
2022-10-18T03:51:14.936Z,93.03
2022-10-18T03:51:46.453Z,92.94
2022-10-18T03:52:17.962Z,92.77
2022-10-18T03:52:49.496Z,92.20
2022-10-18T03:53:21.033Z,91.94
2022-10-18T03:53:52.531Z,92.30
2022-10-18T03:54:24.021Z,92.54
2022-10-18T03:54:55.591Z,93.71
2022-10-18T03:55:27.468Z,95.30
2022-10-18T03:55:58.992Z,94.22
2022-10-18T03:56:30.539Z,94.48
2022-10-18T03:57:02.067Z,95.25
2022-10-18T03:57:33.674Z,95.74
2022-10-18T03:58:05.291Z,96.24
2022-10-18T03:58:36.863Z,96.06
2022-10-18T03:59:08.395Z,95.60
2022-10-18T03:59:39.893Z,94.86
2022-10-18T04:00:12.820Z,94.01
2022-10-18T04:00:44.360Z,93.80
2022-10-18T04:01:15.929Z,94.70
2022-10-18T04:01:47.593Z,95.58
2022-10-18T04:02:19.137Z,96.45
2022-10-18T04:02:53.352Z,96.56
2022-10-18T04:03:27.492Z,96.20
2022-10-18T04:03:59.046Z,96.22
2022-10-18T04:04:30.557Z,95.63
2022-10-18T04:05:02.068Z,94.93
2022-10-18T04:05:34.605Z,94.13
2022-10-18T04:06:07.870Z,93.90
2022-10-18T04:06:39.382Z,94.42
2022-10-18T04:07:10.890Z,95.42
2022-10-18T04:07:42.548Z,96.06
2022-10-18T04:08:14.943Z,96.16
2022-10-18T04:08:46.462Z,97.03
2022-10-18T04:09:17.976Z,96.72
2022-10-18T04:09:49.474Z,95.88
2022-10-18T04:10:21.058Z,94.58
2022-10-18T04:10:52.680Z,94.81
2022-10-18T04:11:24.172Z,94.88
2022-10-18T04:11:55.714Z,94.84
2022-10-18T04:12:27.278Z,95.27
2022-10-18T04:12:58.791Z,95.72
2022-10-18T04:13:30.318Z,95.59
2022-10-18T04:14:01.938Z,96.58
2022-10-18T04:14:33.546Z,96.02
2022-10-18T04:15:05.571Z,95.51
2022-10-18T04:15:37.371Z,95.16
2022-10-18T04:16:08.882Z,95.42
2022-10-18T04:16:40.391Z,95.02
2022-10-18T04:17:11.922Z,94.62
2022-10-18T04:17:43.457Z,94.60
2022-10-18T04:18:15.014Z,94.66
2022-10-18T04:18:46.506Z,95.05
2022-10-18T04:19:18.018Z,95.17
2022-10-18T04:19:49.546Z,94.83
2022-10-18T04:20:21.054Z,95.20
2022-10-18T04:20:52.579Z,94.60
2022-10-18T04:21:24.151Z,94.15
2022-10-18T04:21:55.846Z,93.60
2022-10-18T04:22:27.354Z,93.36
2022-10-18T04:22:58.939Z,93.39
2022-10-18T04:23:31.847Z,93.91
2022-10-18T04:24:07.108Z,94.35
2022-10-18T04:24:39.297Z,94.54
2022-10-18T04:25:10.803Z,94.76
2022-10-18T04:26:18.863Z,94.57
2022-10-18T04:26:50.426Z,94.18
2022-10-18T04:27:21.930Z,94.43
2022-10-18T04:27:53.442Z,94.44
2022-10-18T04:28:24.992Z,94.82
2022-10-18T04:28:56.599Z,94.66
2022-10-18T04:29:28.113Z,94.62
2022-10-18T04:29:59.611Z,94.28
2022-10-18T04:30:31.159Z,94.12
2022-10-18T04:31:02.739Z,94.55
2022-10-18T04:31:34.300Z,94.84
2022-10-18T04:32:05.991Z,94.73
2022-10-18T04:32:37.513Z,94.36
2022-10-18T04:33:09.022Z,94.44
2022-10-18T04:33:40.570Z,94.28
2022-10-18T04:34:12.094Z,94.69
2022-10-18T04:35:24.359Z,94.43
2022-10-18T04:35:55.882Z,94.29
2022-10-18T04:36:27.378Z,94.30
2022-10-18T04:36:58.939Z,94.59
2022-10-18T04:37:30.877Z,94.32
2022-10-18T04:38:02.619Z,94.19
2022-10-18T04:38:34.479Z,94.59
2022-10-18T04:39:06.012Z,94.71
2022-10-18T04:39:37.566Z,95.04
2022-10-18T04:40:10.884Z,95.14
2022-10-18T04:40:42.403Z,94.99
2022-10-18T04:41:13.982Z,94.98
2022-10-18T04:41:45.494Z,94.90
2022-10-18T04:42:17.022Z,94.66
2022-10-18T04:42:48.604Z,94.42
2022-10-18T04:43:20.215Z,94.52
2022-10-18T04:43:51.735Z,94.44
2022-10-18T04:44:23.274Z,94.18
2022-10-18T04:44:54.902Z,94.38
2022-10-18T04:45:26.511Z,94.75
2022-10-18T04:45:58.099Z,94.59
2022-10-18T04:46:29.609Z,94.67
2022-10-18T04:47:01.122Z,94.50
2022-10-18T04:47:32.839Z,94.56
2022-10-18T04:48:05.130Z,94.59
2022-10-18T04:48:36.680Z,94.50
2022-10-18T04:49:08.186Z,94.40
2022-10-18T04:49:39.735Z,94.36
2022-10-18T04:50:11.255Z,94.17
2022-10-18T04:50:42.823Z,94.24
2022-10-18T04:51:14.338Z,94.32
2022-10-18T04:51:45.852Z,94.50
2022-10-18T04:52:17.407Z,94.66
2022-10-18T04:53:25.382Z,94.20
2022-10-18T04:53:56.979Z,94.02
2022-10-18T04:54:28.721Z,93.86
2022-10-18T04:55:00.330Z,94.07
2022-10-18T04:55:31.968Z,94.33
2022-10-18T04:56:03.596Z,94.36
2022-10-18T04:56:35.104Z,94.61
2022-10-18T04:57:06.609Z,94.49
2022-10-18T04:57:38.131Z,94.56
2022-10-18T04:58:09.639Z,94.33
2022-10-18T04:58:41.176Z,94.11
2022-10-18T04:59:12.759Z,94.23
2022-10-18T04:59:44.302Z,94.19
2022-10-18T05:00:15.812Z,94.08
2022-10-18T05:00:50.346Z,94.04
2022-10-18T05:01:21.902Z,93.89
2022-10-18T05:01:53.665Z,93.89
2022-10-18T05:02:25.300Z,93.62
2022-10-18T05:02:59.834Z,93.45
2022-10-18T05:03:31.336Z,93.47
2022-10-18T05:04:02.866Z,93.16
2022-10-18T05:04:34.404Z,93.14
2022-10-18T05:05:08.096Z,93.06
2022-10-18T05:06:00.751Z,93.16
2022-10-18T05:06:32.719Z,93.18
2022-10-18T05:07:06.567Z,93.24
2022-10-18T05:07:38.082Z,93.33
2022-10-18T05:08:09.658Z,93.28
2022-10-18T05:08:41.174Z,93.28
2022-10-18T05:09:13.008Z,93.33
2022-10-18T05:09:44.563Z,93.28
2022-10-18T05:10:16.107Z,93.92
2022-10-18T05:10:47.612Z,94.34
2022-10-18T05:11:19.187Z,94.76
2022-10-18T05:11:51.395Z,95.07
2022-10-18T05:12:23.013Z,95.18
2022-10-18T05:12:54.506Z,95.84
2022-10-18T05:13:26.451Z,95.92
2022-10-18T05:13:58.022Z,95.79
2022-10-18T05:14:29.563Z,95.81
2022-10-18T05:15:01.136Z,95.70
2022-10-18T05:15:32.652Z,96.34
2022-10-18T05:16:05.233Z,96.43
2022-10-18T05:16:36.861Z,96.52
2022-10-18T05:17:08.399Z,96.49
2022-10-18T05:17:39.937Z,96.42
2022-10-18T05:18:11.452Z,96.53
2022-10-18T05:18:43.329Z,96.52
2022-10-18T05:19:14.844Z,96.56
2022-10-18T05:19:46.370Z,96.56
2022-10-18T05:20:17.951Z,96.32
2022-10-18T05:20:49.480Z,96.40
2022-10-18T05:21:21.163Z,96.53
2022-10-18T05:21:52.806Z,96.18
2022-10-18T05:22:24.409Z,95.92
2022-10-18T05:22:57.636Z,95.88
2022-10-18T05:23:29.222Z,96.13
2022-10-18T05:24:00.841Z,96.30
2022-10-18T05:24:32.543Z,96.24
2022-10-18T05:25:04.228Z,96.39
2022-10-18T05:25:41.123Z,96.35
2022-10-18T05:26:12.634Z,96.35
2022-10-18T05:26:44.142Z,96.23
2022-10-18T05:27:15.658Z,96.57
2022-10-18T05:27:47.171Z,96.65
2022-10-18T05:28:38.675Z,96.45
2022-10-18T05:29:10.427Z,96.34
2022-10-18T05:29:42.023Z,96.13
2022-10-18T05:30:13.581Z,95.94
2022-10-18T05:30:45.146Z,96.23
2022-10-18T05:31:17.358Z,96.65
2022-10-18T05:31:49.747Z,96.50
2022-10-18T05:32:21.480Z,96.30
2022-10-18T05:32:52.979Z,95.86
2022-10-18T05:33:24.500Z,95.65
2022-10-18T05:33:56.090Z,95.90
2022-10-18T05:34:31.860Z,95.93
2022-10-18T05:35:03.535Z,96.00
2022-10-18T05:35:35.090Z,95.90
2022-10-18T05:36:07.030Z,95.86
2022-10-18T05:36:38.540Z,95.94
2022-10-18T05:37:10.343Z,95.95
2022-10-18T05:37:41.858Z,96.29
2022-10-18T05:38:13.364Z,96.37
2022-10-18T05:38:45.547Z,96.21
2022-10-18T05:39:17.179Z,96.01
2022-10-18T05:39:48.678Z,96.42
2022-10-18T05:40:20.186Z,96.29
2022-10-18T05:40:52.006Z,96.23
2022-10-18T05:41:23.513Z,96.02
2022-10-18T05:41:55.045Z,96.06
2022-10-18T05:42:26.586Z,96.07
2022-10-18T05:42:58.142Z,96.07
2022-10-18T05:43:30.086Z,96.10
2022-10-18T05:44:06.166Z,95.97
2022-10-18T05:44:37.695Z,95.72
2022-10-18T05:45:09.296Z,95.67
2022-10-18T05:45:47.580Z,95.47
2022-10-18T05:46:19.186Z,95.38
2022-10-18T05:46:50.688Z,95.14
2022-10-18T05:47:22.209Z,94.94
2022-10-18T05:47:54.759Z,94.66
2022-10-18T05:48:26.668Z,94.39
2022-10-18T05:48:58.252Z,94.29
2022-10-18T05:49:29.771Z,94.25
2022-10-18T05:50:01.295Z,94.46
2022-10-18T05:50:36.641Z,94.58
2022-10-18T05:51:11.643Z,94.67
2022-10-18T05:51:43.152Z,94.45
2022-10-18T05:52:14.675Z,94.54
2022-10-18T05:52:46.209Z,94.77
2022-10-18T05:53:35.734Z,94.83
2022-10-18T05:54:09.336Z,94.88
2022-10-18T05:54:40.892Z,94.68
2022-10-18T05:55:12.439Z,94.76
2022-10-18T05:55:44.013Z,94.92
2022-10-18T05:56:15.787Z,94.86
2022-10-18T05:56:47.459Z,95.39
2022-10-18T05:57:19.337Z,95.30
2022-10-18T05:57:51.279Z,94.92
2022-10-18T05:58:22.821Z,94.73
2022-10-18T05:58:54.441Z,95.25
2022-10-18T05:59:26.164Z,95.03
2022-10-18T05:59:57.690Z,95.24
2022-10-18T06:00:29.596Z,95.25
2022-10-18T06:01:02.276Z,95.14
2022-10-18T06:01:33.847Z,94.83
2022-10-18T06:02:05.489Z,94.67
2022-10-18T06:02:37.273Z,94.41
2022-10-18T06:03:08.912Z,94.60
2022-10-18T06:03:40.486Z,94.66
2022-10-18T06:04:12.059Z,94.55
2022-10-18T06:04:43.584Z,94.44
2022-10-18T06:05:15.195Z,94.29
2022-10-18T06:05:46.732Z,94.18
2022-10-18T06:06:18.314Z,94.30
2022-10-18T06:06:49.852Z,94.15
2022-10-18T06:07:21.382Z,94.47
2022-10-18T06:07:52.909Z,94.61
2022-10-18T06:08:24.422Z,94.14
2022-10-18T06:08:56.037Z,93.71
2022-10-18T06:09:28.703Z,93.56
2022-10-18T06:10:00.298Z,93.75
2022-10-18T06:10:31.823Z,93.94
2022-10-18T06:11:11.735Z,93.66
2022-10-18T06:11:43.270Z,93.51
2022-10-18T06:12:14.807Z,93.32
2022-10-18T06:12:46.365Z,93.20
2022-10-18T06:13:17.885Z,92.98
2022-10-18T06:13:51.134Z,93.27
2022-10-18T06:14:22.655Z,93.36
2022-10-18T06:14:54.493Z,93.40
2022-10-18T06:15:26.093Z,93.13
2022-10-18T06:15:57.690Z,93.18
2022-10-18T06:16:32.427Z,93.31
2022-10-18T06:17:04.422Z,93.64
2022-10-18T06:17:36.109Z,93.88
2022-10-18T06:18:07.718Z,94.06
2022-10-18T06:18:39.718Z,93.58
2022-10-18T06:19:11.267Z,93.76
2022-10-18T06:19:44.399Z,93.87
2022-10-18T06:20:16.079Z,94.27
2022-10-18T06:20:47.795Z,94.29
2022-10-18T06:21:19.967Z,94.33
2022-10-18T06:21:53.106Z,94.57
2022-10-18T06:22:24.615Z,94.43
2022-10-18T06:22:56.139Z,94.31
2022-10-18T06:23:28.669Z,94.29
2022-10-18T06:24:00.404Z,94.25
2022-10-18T06:24:31.966Z,94.51
2022-10-18T06:25:03.671Z,94.55
2022-10-18T06:25:35.199Z,94.33
2022-10-18T06:26:08.239Z,94.13
2022-10-18T06:26:39.847Z,93.99
2022-10-18T06:27:11.422Z,93.92
2022-10-18T06:27:42.993Z,93.71
2022-10-18T06:28:14.507Z,93.61
2022-10-18T06:28:46.462Z,93.47
2022-10-18T06:29:18.146Z,93.20
2022-10-18T06:29:49.692Z,93.13
2022-10-18T06:30:21.228Z,93.20
2022-10-18T06:30:52.760Z,92.99
2022-10-18T06:31:24.337Z,92.22
2022-10-18T06:31:55.844Z,91.85
2022-10-18T06:32:27.367Z,91.36
2022-10-18T06:33:01.943Z,90.42
2022-10-18T06:33:36.114Z,90.11
2022-10-18T06:34:07.688Z,90.65
2022-10-18T06:34:39.186Z,90.75
2022-10-18T06:35:10.766Z,90.50
2022-10-18T06:35:42.335Z,90.93
2022-10-18T06:36:19.317Z,91.07
2022-10-18T06:36:53.841Z,91.71
2022-10-18T06:37:30.817Z,91.89
2022-10-18T06:38:02.602Z,91.77
2022-10-18T06:38:34.867Z,91.62
2022-10-18T06:39:06.433Z,91.34
2022-10-18T06:39:37.938Z,91.30
2022-10-18T06:40:10.164Z,91.56
2022-10-18T06:40:41.705Z,91.47
2022-10-18T06:41:13.366Z,91.45
2022-10-18T06:41:44.903Z,91.83
2022-10-18T06:42:19.141Z,92.10
2022-10-18T06:43:00.553Z,92.41
2022-10-18T06:43:42.242Z,92.42
2022-10-18T06:44:15.071Z,92.01
2022-10-18T06:44:47.985Z,91.88
2022-10-18T06:45:19.535Z,91.62
2022-10-18T06:45:51.658Z,91.44
2022-10-18T06:46:23.858Z,91.07
2022-10-18T06:46:55.421Z,90.73
2022-10-18T06:47:26.990Z,89.88
2022-10-18T06:47:58.653Z,88.56
2022-10-18T06:48:31.195Z,86.85
2022-10-18T06:49:02.747Z,84.08
2022-10-18T06:49:34.320Z,82.89
2022-10-18T06:50:06.285Z,81.76
2022-10-18T06:50:37.891Z,80.93
2022-10-18T06:51:09.838Z,80.14
2022-10-18T06:51:42.896Z,78.82
2022-10-18T06:52:17.427Z,77.95
2022-10-18T06:52:51.134Z,77.20
2022-10-18T06:53:23.896Z,76.36
2022-10-18T06:54:06.158Z,76.71
2022-10-18T06:54:46.981Z,76.83
2022-10-18T06:55:18.592Z,76.85
2022-10-18T06:55:50.311Z,75.07
2022-10-18T06:56:21.867Z,73.30
2022-10-18T06:56:56.814Z,72.48
2022-10-18T06:57:28.471Z,73.65
2022-10-18T06:58:00.146Z,74.47
2022-10-18T06:58:32.433Z,75.63
2022-10-18T06:59:04.819Z,76.57
2022-10-18T06:59:36.382Z,77.53
2022-10-18T07:00:08.743Z,78.24
2022-10-18T07:00:40.308Z,78.04
2022-10-18T07:01:14.416Z,77.75
2022-10-18T07:01:46.069Z,76.66
2022-10-18T07:02:17.922Z,76.43
2022-10-18T07:02:49.557Z,75.19
2022-10-18T07:03:24.146Z,73.86
2022-10-18T07:03:56.017Z,73.84
2022-10-18T07:04:30.651Z,72.46
2022-10-18T07:05:02.187Z,71.01
2022-10-18T07:06:11.850Z,67.43
2022-10-18T07:06:43.409Z,65.02
2022-10-18T07:07:14.955Z,62.26
2022-10-18T07:07:46.474Z,60.33
2022-10-18T07:08:18.557Z,59.48
2022-10-18T07:08:51.137Z,59.67
2022-10-18T07:09:22.685Z,60.45
2022-10-18T07:09:54.224Z,61.59
2022-10-18T07:10:25.871Z,62.78
2022-10-18T07:10:57.686Z,64.46
2022-10-18T07:11:29.244Z,66.64
2022-10-18T07:12:00.823Z,67.33
2022-10-18T07:12:33.246Z,68.81
2022-10-18T07:13:30.486Z,70.31
2022-10-18T07:14:02.991Z,72.45
2022-10-18T07:14:34.576Z,73.18
2022-10-18T07:15:09.400Z,73.17
2022-10-18T07:15:41.350Z,72.60
2022-10-18T07:16:18.165Z,72.27
2022-10-18T07:16:50.411Z,72.37
2022-10-18T07:17:21.940Z,72.87
2022-10-18T07:17:53.521Z,75.04
2022-10-18T07:18:25.071Z,74.38
2022-10-18T07:18:56.842Z,74.33
2022-10-18T07:19:28.367Z,72.60
2022-10-18T07:19:59.934Z,72.80
2022-10-18T07:20:31.494Z,71.44
2022-10-18T07:21:08.582Z,71.10
2022-10-18T07:21:40.136Z,73.51
2022-10-18T07:22:11.656Z,73.79
2022-10-18T07:22:43.203Z,71.56